createdAt,value
2022-12-18T00:00:53.994Z,92543.41
2022-12-18T00:03:21.731Z,92529.16
2022-12-18T00:05:50.143Z,92506.72
2022-12-18T00:08:18.783Z,92523.03
2022-12-18T00:10:47.209Z,92535.25
2022-12-18T00:13:14.840Z,92286.66
2022-12-18T00:15:43.866Z,92547.47
2022-12-18T00:18:13.808Z,92523.03
2022-12-18T00:20:43.668Z,92553.59
2022-12-18T00:23:11.317Z,92512.84
2022-12-18T00:25:39.019Z,92465.97
2022-12-18T00:28:06.780Z,92449.69
2022-12-18T00:30:34.383Z,92531.19
2022-12-18T00:33:03.353Z,92535.25
2022-12-18T00:35:30.941Z,92518.94
2022-12-18T00:37:58.576Z,92508.75
2022-12-18T00:40:26.237Z,92510.81
2022-12-18T00:42:59.019Z,92531.19
2022-12-18T00:45:27.839Z,92541.38
2022-12-18T00:47:55.960Z,92508.75
2022-12-18T00:50:26.431Z,92559.72
2022-12-18T00:52:54.410Z,92482.28
2022-12-18T00:55:22.022Z,92514.88
2022-12-18T00:57:49.687Z,92508.75
2022-12-18T01:00:17.663Z,92527.09
2022-12-18T01:02:45.437Z,92531.19
2022-12-18T01:05:15.211Z,92474.13
2022-12-18T01:07:44.174Z,92461.91
2022-12-18T01:10:13.416Z,92490.44
2022-12-18T01:12:41.400Z,92506.72
2022-12-18T01:15:10.267Z,92480.25
2022-12-18T01:17:38.026Z,92518.94
2022-12-18T01:20:07.185Z,92551.56
2022-12-18T01:22:38.370Z,92482.28
2022-12-18T01:25:08.101Z,92523.03
2022-12-18T01:27:36.097Z,92547.47
2022-12-18T01:30:04.200Z,92539.34
2022-12-18T01:32:32.398Z,92521.00
2022-12-18T01:35:00.068Z,92518.94
2022-12-18T01:37:27.681Z,92539.34
2022-12-18T01:39:56.490Z,92523.03
2022-12-18T01:42:26.467Z,92461.91
2022-12-18T01:44:58.404Z,92521.00
2022-12-18T01:47:29.115Z,92502.66
2022-12-18T01:49:58.681Z,92529.16
2022-12-18T01:52:28.052Z,92541.38
2022-12-18T01:54:57.360Z,92498.56
2022-12-18T01:57:27.617Z,92508.75
2022-12-18T01:59:57.698Z,92521.00
2022-12-18T02:02:25.476Z,92523.03
2022-12-18T02:04:53.225Z,92533.22
2022-12-18T02:07:28.044Z,92510.81
2022-12-18T02:10:01.356Z,92518.94
2022-12-18T02:12:38.447Z,92474.13
2022-12-18T02:15:14.691Z,92531.19
2022-12-18T02:17:46.172Z,92553.59
2022-12-18T02:20:19.843Z,92525.06
2022-12-18T02:23:00.384Z,92541.38
2022-12-18T02:25:42.391Z,92498.56
2022-12-18T02:28:15.526Z,92578.03
2022-12-18T02:30:44.622Z,92470.06
2022-12-18T02:33:14.054Z,92553.59
2022-12-18T02:35:43.770Z,92490.44
2022-12-18T02:38:13.205Z,92498.56
2022-12-18T02:40:42.464Z,92482.28
2022-12-18T02:43:13.450Z,92545.44
2022-12-18T02:45:50.091Z,92512.84
2022-12-18T02:48:19.765Z,92531.19
2022-12-18T02:50:53.917Z,92478.19
2022-12-18T02:53:29.485Z,92516.91
2022-12-18T02:56:04.602Z,92510.81
2022-12-18T02:58:43.404Z,92559.72
2022-12-18T03:01:18.617Z,92551.56
2022-12-18T03:03:51.238Z,92498.56
2022-12-18T03:06:24.998Z,92563.78
2022-12-18T03:08:57.945Z,92496.53
2022-12-18T03:11:43.603Z,92514.88
2022-12-18T03:14:17.425Z,92394.66
2022-12-18T03:16:46.845Z,92498.56
2022-12-18T03:19:18.571Z,92510.81
2022-12-18T03:21:50.140Z,92514.88
2022-12-18T03:24:19.136Z,92498.56
2022-12-18T03:26:51.595Z,92518.94
2022-12-18T03:29:25.422Z,92531.19
2022-12-18T03:32:02.615Z,92523.03
2022-12-18T03:34:34.501Z,92502.66
2022-12-18T03:37:05.089Z,92525.06
2022-12-18T03:39:33.002Z,92535.25
2022-12-18T03:42:09.294Z,92311.13
2022-12-18T03:44:44.136Z,92512.84
2022-12-18T03:47:17.329Z,92541.38
2022-12-18T03:49:52.159Z,92555.63
2022-12-18T03:52:25.747Z,92527.09
2022-12-18T03:54:56.015Z,92514.88
2022-12-18T03:57:28.103Z,92472.09
2022-12-18T04:00:01.692Z,92551.56
2022-12-18T04:02:31.006Z,92561.75
2022-12-18T04:05:03.436Z,92539.34
2022-12-18T04:07:31.302Z,92506.72
2022-12-18T04:10:02.885Z,92518.94
2022-12-18T04:12:31.688Z,92518.94
2022-12-18T04:15:00.722Z,92545.44
2022-12-18T04:17:28.363Z,92510.81
2022-12-18T04:19:56.008Z,92547.47
2022-12-18T04:22:23.666Z,92531.19
2022-12-18T04:24:51.367Z,92525.06
2022-12-18T04:27:19.021Z,92451.72
2022-12-18T04:29:46.890Z,92539.34
2022-12-18T04:32:16.005Z,92531.19
2022-12-18T04:34:43.579Z,92502.66
2022-12-18T04:37:11.424Z,92539.34
2022-12-18T04:39:39.049Z,92476.16
2022-12-18T04:42:06.762Z,92537.28
2022-12-18T04:44:34.370Z,92523.03
2022-12-18T04:47:01.977Z,92457.81
2022-12-18T04:49:30.916Z,92492.47
2022-12-18T04:51:58.558Z,92545.44
2022-12-18T04:54:26.438Z,92543.41
2022-12-18T04:56:54.029Z,92525.06
2022-12-18T04:59:22.911Z,92478.19
2022-12-18T05:01:51.232Z,92531.19
2022-12-18T05:04:18.986Z,92549.53
2022-12-18T05:06:48.952Z,92545.44
2022-12-18T05:09:16.720Z,92527.09
2022-12-18T05:11:44.792Z,92498.56
2022-12-18T05:14:13.987Z,92510.81
2022-12-18T05:16:41.941Z,92549.53
2022-12-18T05:19:09.543Z,92541.38
2022-12-18T05:21:37.305Z,92502.66
2022-12-18T05:24:07.008Z,92525.06
2022-12-18T05:26:34.681Z,92514.88
2022-12-18T05:29:02.354Z,92498.56
2022-12-18T05:31:32.403Z,92490.44
2022-12-18T05:34:03.763Z,92533.22
2022-12-18T05:36:31.493Z,92506.72
2022-12-18T05:38:59.226Z,92512.84
2022-12-18T05:41:28.222Z,92506.72
2022-12-18T05:43:55.839Z,92559.72
2022-12-18T05:46:23.535Z,92531.19
2022-12-18T05:48:51.782Z,92506.72
2022-12-18T05:51:21.898Z,92529.16
2022-12-18T05:53:50.052Z,92535.25
2022-12-18T05:56:20.375Z,92527.09
2022-12-18T05:58:49.677Z,92535.25
2022-12-18T06:01:19.993Z,92492.47
2022-12-18T06:03:48.011Z,92484.31
2022-12-18T06:06:17.073Z,92523.03
2022-12-18T06:08:46.646Z,92525.06
2022-12-18T06:11:15.174Z,92502.66
2022-12-18T06:13:42.986Z,92571.94
2022-12-18T06:16:12.191Z,92521.00
2022-12-18T06:18:40.129Z,92533.22
2022-12-18T06:21:07.772Z,92533.22
2022-12-18T06:23:35.565Z,92531.19
2022-12-18T06:26:06.389Z,92535.25
2022-12-18T06:28:34.049Z,92547.47
2022-12-18T06:31:01.885Z,92529.16
2022-12-18T06:33:31.065Z,92535.25
2022-12-18T06:36:02.664Z,92413.00
2022-12-18T06:38:30.281Z,92494.50
2022-12-18T06:40:57.869Z,92472.09
2022-12-18T06:43:25.592Z,92531.19
2022-12-18T06:45:53.981Z,92516.91
2022-12-18T06:48:21.931Z,92514.88
2022-12-18T06:50:50.877Z,92541.38
2022-12-18T06:53:18.504Z,92516.91
2022-12-18T06:55:46.112Z,92543.41
2022-12-18T06:58:13.778Z,92525.06
2022-12-18T07:00:41.498Z,92529.16
2022-12-18T07:03:09.280Z,92512.84
2022-12-18T07:05:42.042Z,92496.53
2022-12-18T07:08:11.014Z,92510.81
2022-12-18T07:10:47.440Z,92480.25
2022-12-18T07:13:15.889Z,92573.97
2022-12-18T07:15:43.674Z,92523.03
2022-12-18T07:18:11.525Z,92510.81
2022-12-18T07:20:39.441Z,92427.25
2022-12-18T07:23:07.432Z,92500.63
2022-12-18T07:25:37.248Z,92516.91
2022-12-18T07:28:05.537Z,92506.72
2022-12-18T07:30:33.176Z,92535.25
2022-12-18T07:33:00.819Z,92525.06
2022-12-18T07:35:28.430Z,92508.75
2022-12-18T07:37:56.183Z,92535.25
2022-12-18T07:40:23.783Z,92447.63
2022-12-18T07:42:52.743Z,92496.53
2022-12-18T07:45:20.438Z,92510.81
2022-12-18T07:47:48.048Z,92498.56
2022-12-18T07:50:15.777Z,92472.09
2022-12-18T07:52:43.554Z,92516.91
2022-12-18T07:55:11.145Z,92533.22
2022-12-18T07:57:50.366Z,92527.09
2022-12-18T08:00:21.436Z,92506.72
2022-12-18T08:02:49.167Z,92496.53
2022-12-18T08:05:17.078Z,92504.69
2022-12-18T08:07:44.644Z,92514.88
2022-12-18T08:10:12.242Z,92480.25
2022-12-18T08:12:39.899Z,92492.47
2022-12-18T08:15:08.933Z,92498.56
2022-12-18T08:17:37.976Z,92531.19
2022-12-18T08:20:05.970Z,92523.03
2022-12-18T08:22:36.220Z,92478.19
2022-12-18T08:25:04.664Z,92496.53
2022-12-18T08:27:32.971Z,92498.56
2022-12-18T08:30:00.759Z,92468.00
2022-12-18T08:32:29.930Z,92504.69
2022-12-18T08:34:58.888Z,92502.66
2022-12-18T08:37:26.966Z,92480.25
2022-12-18T08:39:54.564Z,92465.97
2022-12-18T08:42:39.754Z,92482.28
2022-12-18T08:45:08.362Z,92478.19
2022-12-18T08:47:35.974Z,92453.75
2022-12-18T08:50:05.379Z,92465.97
2022-12-18T08:52:34.079Z,92482.28
2022-12-18T08:55:01.693Z,92380.38
2022-12-18T08:57:29.492Z,92500.63
2022-12-18T08:59:57.130Z,92478.19
2022-12-18T09:02:25.062Z,92461.91
2022-12-18T09:04:57.406Z,92439.47
2022-12-18T09:07:26.805Z,92408.91
2022-12-18T09:09:54.424Z,92415.03
2022-12-18T09:12:22.037Z,92465.97
2022-12-18T09:14:49.623Z,92470.06
2022-12-18T09:17:17.332Z,92429.28
2022-12-18T09:19:45.233Z,92468.00
2022-12-18T09:22:12.838Z,92470.06
2022-12-18T09:24:41.819Z,92445.59
2022-12-18T09:27:09.649Z,92394.66
2022-12-18T09:29:37.540Z,92437.44
2022-12-18T09:32:05.660Z,92437.44
2022-12-18T09:34:33.675Z,92482.28
2022-12-18T09:37:01.321Z,92455.78
2022-12-18T09:39:28.960Z,92429.28
2022-12-18T09:41:59.871Z,92343.72
2022-12-18T09:44:31.752Z,92435.41
2022-12-18T09:47:10.550Z,92406.88
2022-12-18T09:49:42.580Z,92408.91
2022-12-18T09:52:15.872Z,92402.81
2022-12-18T09:54:51.991Z,92364.09
2022-12-18T09:57:25.435Z,92390.59
2022-12-18T09:59:57.396Z,92372.25
2022-12-18T10:02:26.874Z,92384.47
2022-12-18T10:05:13.709Z,92378.34
2022-12-18T10:07:50.638Z,92335.56
2022-12-18T10:10:29.394Z,92425.22
2022-12-18T10:13:09.364Z,92396.69
2022-12-18T10:15:46.834Z,92343.72
2022-12-18T10:18:27.290Z,92380.38
2022-12-18T10:20:59.896Z,92398.72
2022-12-18T10:23:34.500Z,92329.44
2022-12-18T10:26:05.292Z,92347.78
2022-12-18T10:28:40.232Z,92337.59
2022-12-18T10:31:08.420Z,92331.50
2022-12-18T10:33:36.558Z,92307.03
2022-12-18T10:36:04.494Z,92329.44
2022-12-18T10:38:33.804Z,92351.88
2022-12-18T10:41:03.687Z,92256.09
2022-12-18T10:43:33.281Z,92211.28
2022-12-18T10:46:15.398Z,92319.25
2022-12-18T10:48:52.197Z,92302.97
2022-12-18T10:51:26.040Z,92298.88
2022-12-18T10:53:58.266Z,92302.97
2022-12-18T10:56:27.952Z,92203.13
2022-12-18T10:59:01.314Z,92233.69
2022-12-18T11:01:46.958Z,92254.06
2022-12-18T11:04:19.923Z,92266.28
2022-12-18T11:06:59.778Z,92080.88
2022-12-18T11:09:28.833Z,92319.25
2022-12-18T11:12:00.003Z,92262.22
2022-12-18T11:14:30.199Z,92243.88
2022-12-18T11:19:55.203Z,92376.31
2022-12-18T11:22:27.313Z,92266.28
2022-12-18T11:25:30.336Z,92227.56
2022-12-18T11:27:50.449Z,92260.19
2022-12-18T11:30:24.545Z,92221.47
2022-12-18T11:32:58.415Z,92482.28
2022-12-18T11:35:36.835Z,92268.31
2022-12-18T11:38:12.783Z,92233.69
2022-12-18T11:40:44.056Z,92199.06
2022-12-18T11:43:16.375Z,92207.19
2022-12-18T11:45:51.637Z,92245.91
2022-12-18T11:48:26.645Z,92374.28
2022-12-18T11:50:55.878Z,92233.69
2022-12-18T11:53:24.208Z,92237.75
2022-12-18T11:56:04.360Z,92213.31
2022-12-18T11:58:44.953Z,92164.41
2022-12-18T12:01:20.588Z,92213.31
2022-12-18T12:04:16.793Z,92174.59
2022-12-18T12:07:03.084Z,92194.97
2022-12-18T12:09:43.219Z,92188.88
2022-12-18T12:12:27.759Z,92201.09
2022-12-18T12:15:06.965Z,92245.91
2022-12-18T12:17:42.869Z,92197.00
2022-12-18T12:20:21.613Z,92199.06
2022-12-18T12:23:00.442Z,92219.44
2022-12-18T12:25:36.120Z,92160.34
2022-12-18T12:28:19.916Z,92237.75
2022-12-18T12:30:57.249Z,92142.00
2022-12-18T12:33:38.563Z,92231.66
2022-12-18T12:36:15.253Z,92254.06
2022-12-18T12:38:51.577Z,91964.75
2022-12-18T12:41:40.293Z,92233.69
2022-12-18T12:44:11.126Z,92243.88
2022-12-18T12:46:42.719Z,92254.06
2022-12-18T12:49:15.367Z,92245.91
2022-12-18T12:51:52.094Z,92199.06
2022-12-18T12:54:25.342Z,92127.72
2022-12-18T12:56:59.856Z,92139.97
2022-12-18T12:59:37.023Z,92097.19
2022-12-18T13:02:14.061Z,92135.88
2022-12-18T13:04:49.404Z,92184.78
2022-12-18T13:07:25.985Z,92148.13
2022-12-18T13:10:24.907Z,92176.63
2022-12-18T13:12:58.829Z,92184.78
2022-12-18T13:15:32.766Z,92115.50
2022-12-18T13:18:15.502Z,92180.72
2022-12-18T13:20:52.457Z,92082.91
2022-12-18T13:23:31.792Z,92190.91
2022-12-18T13:26:01.395Z,92174.59
2022-12-18T13:28:54.720Z,92182.75
2022-12-18T13:32:10.116Z,92154.22
2022-12-18T13:34:38.383Z,92111.44
2022-12-18T13:37:55.536Z,92164.41
2022-12-18T13:40:58.287Z,92148.13
2022-12-18T13:43:32.995Z,92107.38
2022-12-18T13:46:22.247Z,92164.41
2022-12-18T13:48:57.635Z,92148.13
2022-12-18T13:51:26.999Z,92070.69
2022-12-18T13:53:57.115Z,92123.66
2022-12-18T13:56:28.554Z,92144.03
2022-12-18T13:59:25.311Z,92174.59
2022-12-18T14:01:55.878Z,92121.63
2022-12-18T14:04:27.674Z,92135.88
2022-12-18T14:06:59.783Z,92142.00
2022-12-18T14:09:30.923Z,92150.16
2022-12-18T14:12:19.338Z,92384.47
2022-12-18T14:14:49.465Z,92111.44
2022-12-18T14:17:21.355Z,92164.41
2022-12-18T14:19:52.035Z,92142.00
2022-12-18T14:22:22.242Z,92133.84
2022-12-18T14:25:06.513Z,92123.66
2022-12-18T14:27:43.275Z,92176.63
2022-12-18T14:30:26.754Z,92099.22
2022-12-18T14:33:02.551Z,92074.75
2022-12-18T14:35:30.461Z,92152.19
2022-12-18T14:38:22.437Z,92156.25
2022-12-18T14:40:55.488Z,92093.09
2022-12-18T14:43:24.858Z,92164.41
2022-12-18T14:45:53.369Z,92148.13
2022-12-18T14:48:24.103Z,92156.25
2022-12-18T14:51:01.088Z,92172.56
2022-12-18T14:53:37.547Z,92162.38
2022-12-18T14:56:16.059Z,92164.41
2022-12-18T14:58:49.356Z,92162.38
2022-12-18T15:01:25.786Z,92121.63
2022-12-18T15:03:54.841Z,92217.38
2022-12-18T15:06:32.596Z,92182.75
2022-12-18T15:09:01.649Z,92160.34
2022-12-18T15:11:31.633Z,92190.91
2022-12-18T15:14:01.722Z,92233.69
2022-12-18T15:16:29.511Z,92180.72
2022-12-18T15:18:57.205Z,92144.03
2022-12-18T15:21:25.661Z,92203.13
2022-12-18T15:23:54.518Z,92156.25
2022-12-18T15:26:23.664Z,92180.72
2022-12-18T15:28:53.463Z,92129.78
2022-12-18T15:31:30.362Z,92168.47
2022-12-18T15:34:22.295Z,92182.75
2022-12-18T15:36:51.852Z,92192.94
2022-12-18T15:39:19.491Z,92197.00
2022-12-18T15:42:01.194Z,92188.88
2022-12-18T15:44:29.217Z,92209.25
2022-12-18T15:46:59.990Z,92184.78
2022-12-18T15:49:27.731Z,92184.78
2022-12-18T15:51:58.480Z,92199.06
2022-12-18T15:54:40.133Z,92197.00
2022-12-18T15:57:25.378Z,92180.72
2022-12-18T15:59:55.023Z,92201.09
2022-12-18T16:02:25.637Z,92205.16
2022-12-18T16:04:54.891Z,92176.63
2022-12-18T16:07:25.436Z,92209.25
2022-12-18T16:09:53.817Z,92174.59
2022-12-18T16:12:24.291Z,92215.34
2022-12-18T16:14:52.165Z,92239.81
2022-12-18T16:17:20.400Z,92197.00
2022-12-18T16:19:49.427Z,92176.63
2022-12-18T16:22:22.962Z,92217.38
2022-12-18T16:24:51.064Z,92148.13
2022-12-18T16:27:19.071Z,92194.97
2022-12-18T16:29:47.180Z,92197.00
2022-12-18T16:32:16.769Z,92172.56
2022-12-18T16:34:45.443Z,92182.75
2022-12-18T16:37:16.272Z,92219.44
2022-12-18T16:39:44.449Z,92197.00
2022-12-18T16:42:15.404Z,92188.88
2022-12-18T16:44:43.874Z,92192.94
2022-12-18T16:47:14.872Z,92219.44
2022-12-18T16:49:45.323Z,92213.31
2022-12-18T16:52:14.963Z,92192.94
2022-12-18T16:54:42.785Z,92219.44
2022-12-18T16:57:11.244Z,92209.25
2022-12-18T16:59:38.921Z,92197.00
2022-12-18T17:02:06.822Z,92221.47
2022-12-18T17:04:34.687Z,92317.22
2022-12-18T17:07:02.296Z,92213.31
2022-12-18T17:09:31.331Z,92201.09
2022-12-18T17:12:04.000Z,92213.31
2022-12-18T17:14:33.411Z,92221.47
2022-12-18T17:19:49.436Z,92221.47
2022-12-18T17:22:17.057Z,92184.78
2022-12-18T17:24:47.158Z,92209.25
2022-12-18T17:27:14.939Z,92203.13
2022-12-18T17:29:47.215Z,92219.44
2022-12-18T17:32:16.162Z,92219.44
2022-12-18T17:34:44.002Z,92205.16
2022-12-18T17:37:11.798Z,92256.09
2022-12-18T17:39:39.840Z,92207.19
2022-12-18T17:42:10.927Z,92227.56
2022-12-18T17:44:43.060Z,92231.66
2022-12-18T17:47:12.243Z,92229.59
2022-12-18T17:49:40.213Z,92192.94
2022-12-18T17:52:08.053Z,92213.31
2022-12-18T17:54:39.344Z,92233.69
2022-12-18T17:57:08.469Z,92164.41
2022-12-18T17:59:36.179Z,92229.59
2022-12-18T18:02:03.975Z,92209.25
2022-12-18T18:04:32.384Z,92215.34
2022-12-18T18:07:00.018Z,92219.44
2022-12-18T18:09:28.473Z,92186.81
2022-12-18T18:12:13.465Z,92213.31
2022-12-18T18:14:42.769Z,92209.25
2022-12-18T18:17:10.468Z,92192.94
2022-12-18T18:19:38.126Z,92180.72
2022-12-18T18:22:07.351Z,92213.31
2022-12-18T18:24:35.410Z,92209.25
2022-12-18T18:27:03.076Z,92262.22
2022-12-18T18:29:31.363Z,92213.31
2022-12-18T18:32:00.706Z,92241.84
2022-12-18T18:34:30.280Z,92219.44
2022-12-18T18:37:01.160Z,92233.69
2022-12-18T18:39:29.036Z,92190.91
2022-12-18T18:41:56.651Z,92199.06
2022-12-18T18:44:26.088Z,92197.00
2022-12-18T18:46:55.904Z,92199.06
2022-12-18T18:49:27.344Z,92241.84
2022-12-18T18:51:55.971Z,92174.59
2022-12-18T18:54:23.850Z,92258.13
2022-12-18T18:59:39.191Z,92203.13
2022-12-18T19:02:07.490Z,92252.03
2022-12-18T19:04:38.471Z,92188.88
2022-12-18T19:07:15.028Z,92203.13
2022-12-18T19:09:54.031Z,92243.88
2022-12-18T19:12:39.908Z,92201.09
2022-12-18T19:15:08.829Z,92241.84
2022-12-18T19:17:37.386Z,92241.84
2022-12-18T19:20:08.119Z,92239.81
2022-12-18T19:22:38.127Z,92131.81
2022-12-18T19:25:06.510Z,92278.50
2022-12-18T19:27:36.456Z,92292.78
2022-12-18T19:30:04.737Z,92201.09
2022-12-18T19:32:32.496Z,92245.91
2022-12-18T19:35:00.218Z,92245.91
2022-12-18T19:37:29.612Z,92243.88
2022-12-18T19:39:57.375Z,92254.06
2022-12-18T19:42:29.415Z,92254.06
2022-12-18T19:45:01.182Z,92209.25
2022-12-18T19:47:28.765Z,92252.03
2022-12-18T19:49:56.391Z,92205.16
2022-12-18T19:52:24.123Z,92254.06
2022-12-18T19:54:53.568Z,92512.84
2022-12-18T19:57:21.347Z,92229.59
2022-12-18T19:59:48.964Z,92245.91
2022-12-18T20:02:17.530Z,92235.72
2022-12-18T20:04:45.364Z,92258.13
2022-12-18T20:07:13.079Z,92237.75
2022-12-18T20:09:40.798Z,92213.31
2022-12-18T20:12:10.181Z,92266.28
2022-12-18T20:14:37.984Z,92164.41
2022-12-18T20:17:05.766Z,92278.50
2022-12-18T20:19:34.156Z,92441.53
2022-12-18T20:22:02.470Z,92231.66
2022-12-18T20:24:30.193Z,92217.38
2022-12-18T20:26:57.815Z,92192.94
2022-12-18T20:29:27.153Z,92192.94
2022-12-18T20:31:54.847Z,92160.34
2022-12-18T20:34:22.669Z,92192.94
2022-12-18T20:36:50.556Z,92201.09
2022-12-18T20:39:19.200Z,92227.56
2022-12-18T20:41:47.954Z,92197.00
2022-12-18T20:44:22.349Z,92180.72
2022-12-18T20:46:53.836Z,92207.19
2022-12-18T20:49:21.572Z,92199.06
2022-12-18T20:51:51.700Z,92227.56
2022-12-18T20:54:23.490Z,92139.97
2022-12-18T20:56:51.268Z,92217.38
2022-12-18T20:59:19.622Z,92076.78
2022-12-18T21:01:48.972Z,92184.78
2022-12-18T21:04:19.223Z,92408.91
2022-12-18T21:06:52.071Z,92125.69
2022-12-18T21:09:22.005Z,92205.16
2022-12-18T21:12:07.803Z,92192.94
2022-12-18T21:14:37.340Z,92221.47
2022-12-18T21:17:05.117Z,92243.88
2022-12-18T21:19:34.220Z,92205.16
2022-12-18T21:22:02.389Z,92233.69
2022-12-18T21:24:32.533Z,92201.09
2022-12-18T21:27:03.776Z,92172.56
2022-12-18T21:29:31.467Z,92215.34
2022-12-18T21:31:59.247Z,92192.94
2022-12-18T21:34:28.854Z,92182.75
2022-12-18T21:36:59.394Z,92209.25
2022-12-18T21:39:28.905Z,92260.19
2022-12-18T21:42:14.568Z,92186.81
2022-12-18T21:44:42.684Z,92205.16
2022-12-18T21:47:22.239Z,92144.03
2022-12-18T21:49:51.485Z,92217.38
2022-12-18T21:52:21.625Z,92207.19
2022-12-18T21:55:06.221Z,92229.59
2022-12-18T21:57:36.639Z,92231.66
2022-12-18T22:00:05.614Z,92203.13
2022-12-18T22:02:33.301Z,92235.72
2022-12-18T22:05:01.081Z,92180.72
2022-12-18T22:07:30.212Z,92203.13
2022-12-18T22:09:57.923Z,92180.72
2022-12-18T22:12:43.982Z,92144.03
2022-12-18T22:15:20.293Z,92245.91
2022-12-18T22:17:50.424Z,92194.97
2022-12-18T22:20:18.422Z,92121.63
2022-12-18T22:22:51.545Z,92256.09
2022-12-18T22:25:19.518Z,92135.88
2022-12-18T22:28:07.140Z,92190.91
2022-12-18T22:30:33.850Z,92133.84
2022-12-18T22:33:01.495Z,92197.00
2022-12-18T22:35:29.203Z,92180.72
2022-12-18T22:37:59.483Z,92237.75
2022-12-18T22:40:27.828Z,92170.53
2022-12-18T22:42:56.004Z,92256.09
2022-12-18T22:45:23.822Z,92274.44
2022-12-18T22:47:52.048Z,92156.25
2022-12-18T22:50:19.931Z,92229.59
2022-12-18T22:52:47.556Z,92213.31
2022-12-18T22:55:16.781Z,92233.69
2022-12-18T22:57:48.577Z,92245.91
2022-12-18T23:00:17.662Z,92241.84
2022-12-18T23:02:57.645Z,92258.13
2022-12-18T23:05:28.280Z,92084.94
2022-12-18T23:07:55.956Z,92241.84
2022-12-18T23:10:25.034Z,92250.00
2022-12-18T23:12:52.669Z,92188.88
2022-12-18T23:15:23.526Z,92213.31
2022-12-18T23:17:55.729Z,91866.94
2022-12-18T23:20:23.446Z,92144.03
2022-12-18T23:22:51.168Z,92152.19
2022-12-18T23:25:18.884Z,92168.47
2022-12-18T23:27:47.899Z,92233.69
2022-12-18T23:30:15.709Z,92408.91
2022-12-18T23:32:43.425Z,92164.41
2022-12-18T23:35:11.779Z,92254.06
2022-12-18T23:37:59.313Z,92205.16
2022-12-18T23:40:27.317Z,92197.00
2022-12-18T23:42:56.393Z,92123.66
2022-12-18T23:45:24.169Z,92217.38
2022-12-18T23:47:51.862Z,92211.28
2022-12-18T23:50:19.585Z,92192.94
2022-12-18T23:52:55.439Z,92178.66
